AirNav   Pilot Hours Calculator
 
 963 users online  

2NK6 Bertrand Chaffee Hospital Heliport
Springville, New York, USA

GOING TO SPRINGVILLE?


FAA INFORMATION EFFECTIVE 25 MARCH 2021

Location

FAA Identifier: 2NK6
Lat/Long: 42-30-39.1500N 078-39-31.1600W
42-30.652500N 078-39.519333W
42.5108750,-78.6586556
(estimated)
Elevation: 1420 ft. / 433 m (estimated)
Variation: 10W (1985)
Time zone: UTC -4 (UTC -5 during Standard Time)
Zip code: 14141

Heliport Operations

Heliport use: Private use, MEDICAL USE.
Activation date: 06/1987
Control tower: no
ARTCC: CLEVELAND CENTER
FSS: BUFFALO FLIGHT SERVICE STATION
Attendance: CONTINUOUS
Wind indicator: yes
Segmented circle: yes

Nearby radio navigation aids

VOR radial/distance  VOR name  Freq  Var
BUFr189/25.1BUFFALO VOR/DME116.4008W
JHWr054/28.2JAMESTOWN VOR/DME114.7007W

Heliport Services

Runway Information

Helipad H1

Dimensions: 100 x 100 ft. / 30 x 30 m
Surface: asphalt
Latitude: 42-30.652500N
Longitude: 078-39.519333W
Elevation: 1420.0 ft.
Traffic pattern: leftleft

Heliport Ownership and Management from official FAA records

Ownership: Privately-owned
Owner: BERTRAND CHAFFEE HOSPITAL
224 EAST MAIN STREET
SPRINGVILLE, NY 14141
Phone 716-592-2871
Manager: GREG EVANS
224 EAST MAIN STREET
SPRINGVILLE, NY 14141
OTR CTC BRANDON FRANK 716-592-2871; BFRANK@BCH-JBR.ORG.

Additional Remarks

XNT AWOS-3P IS ASSOCIATED WITH BETRAND CHAFEE HOSPITAL HELIPORT 2NK6.
FOR CD CTC CLEVELAND ARTCC AT 440-774-0490.

Instrument Procedures

There are no published instrument procedures at 2NK6.

Some nearby airports with instrument procedures:

KOLE - Cattaraugus County-Olean Airport (21 nm SE)
9G0 - Buffalo Airfield (21 nm N)
KBUF - Buffalo Niagara International Airport (26 nm N)
KDKK - Chautauqua County/Dunkirk Airport (27 nm W)
9G3 - Akron Airport/Jesson Field (32 nm N)
 
Loc | Ops | Rwys | IFR | FBO | Links
Com | Nav | Svcs | Stats | Notes
Area around 2NK6 (Bertrand Chaffee Hospital Heliport)
 
Road maps at: MapQuest Bing Google
 
Aerial photo
No photo
 
Sectional chart

 
Airport distance calculator
Flying to Bertrand Chaffee Hospital Heliport? Find the distance to fly.

From to 2NK6

Sunrise and sunset
Times for 11-Apr-2021
 Local
(UTC-4)
 Zulu
(UTC)
Morning civil twilight06:1210:12
Sunrise06:4110:41
Sunset19:5023:50
Evening civil twilight20:1900:19

Current date and time
Zulu (UTC)  12-Apr-2021 01:50:41
Local (UTC-4)  11-Apr-2021 21:50:41
 
METAR
KOLE 
21nm SE 
120135Z AUTO 18004KT 10SM RA SCT007 BKN023 OVC075 10/10 A2956 RMK AO2 LTG DSNT S
KBUF 
26nm N 
120054Z 06006KT 10SM BKN065 BKN100 14/12 A2952 RMK AO2 SLP995 T01440117 $
KDKK 
28nm W 
120053Z AUTO 35005KT 10SM OVC065 13/10 A2953 RMK AO2 SLP999 T01280100 $
CWPC 
34nm NW 
120100Z AUTO 02007KT 14/11 RMK AO1 SLP999 T01380110 51007
KJHW 
35nm SW 
120119Z AUTO 09007KT 030V150 9SM -RA FEW019 BKN030 OVC065 12/10 A2956 RMK AO2 TSE0057 P0018
KGVQ 
38nm NE 
120127Z AUTO 11013KT 10SM -RA BKN007 BKN045 OVC080 13/12 A2954 RMK AO2 CIG 006V012 P0000
KIAG 
38nm N 
120141Z 33003KT 2SM BR BKN002 OVC011 09/09 A2953 RMK AO2 RAB01E10 P0000 T00940094 $
KELZ 
39nm SE 
120127Z AUTO 10004KT 1/4SM FG BKN001 BKN100 11/11 A2954 RMK AO2 T01110111 $
KDSV 
42nm E 
120054Z AUTO 00000KT 10SM -RA FEW070 OVC090 14/13 A2951 RMK AO2 SLP001 P0015 T01440133
TAF
KBUF 
26nm N 
112042Z 1121/1218 VRB04KT 6SM -SHRA BKN035 FM120100 VRB03KT P6SM SCT015 BKN025 TEMPO 1201/1204 BKN015 FM120400 VRB04KT P6SM SCT003 OVC007 FM121200 14004KT P6SM VCSH BKN007 FM121500 VRB03KT P6SM VCSH OVC015
NOTAMs
Click for the latest NOTAMs
NOTAMs are issued by the DoD/FAA and will open in a separate window not controlled by AirNav.

 

 
 

Would you like to see your business listed on this page?

 If your business provides an interesting product or service to pilots, flight crews, aircraft, or users of the Bertrand Chaffee Hospital Heliport, you should consider listing it here.  To start the listing process, click on the button below
 
Add a business
 

Other Pages about Bertrand Chaffee Hospital Heliport

Update a link
 
Copyright © AirNav, LLC. All rights reserved. Privacy Policy  Contact